Airfield :
LOGIN :

Register | Disclaimer

   EN    FR    IT 

 










Legend :    VFR   Marginal VFR   IFR   Intensive IFR   Very Intensive IFR
Visi :
Ceiling :
>= 8 km
>= 3000ft
5 to 8 km
1000 to 3000 ft
1500m to 5 km
500 to 1000 ft
800 to 1500m
200 to 500 ft
< 800m
< 200 ft
Symbols :   Thunderstorms  Fog  Heavy snow  Heavy precipitations  Wind > 20 kt
SIGMETs :     Misc.  Thunderstorms  Icing  Turbulence  Mountain Waves  Volcanic Ashes






- Airport Elevation : 510 ft


LJCE - Cerklje

CURRENT METAR :
  • 250130Z AUTO /////KT 4300 BR SCT002/// BKN009/// M03/M04 Q1028

EXPIRED METARs :
  • 250100Z AUTO /////KT 0900 R09/0900N FZBCFG BKN003/// M04/M04 Q1028
  • 250030Z AUTO 25002KT 0050 R09/0300N FZBCFG VV001 M03/M04 Q1028
  • 250000Z AUTO 28001KT 5000 BR FEW005/// M03/M04 Q1028
  • 242330Z AUTO 00000KT 4700 BR NCD M03/M04 Q1028
  • 242300Z AUTO 00000KT 5000 BR NCD M02/M03 Q1028

TAF TAF LJCE
Valid from the 25 at 00:00 until the 25 at 09:00 UTC


242300Z 2500/2509 VRB02KT 3500 BR NSC
BECMG 2500/2502 0250 FZFG VV002



MET'MAP, your aeronautical weather chart ! - Copyright ORBIFLY December 2007 - Disclaimer

ORBIFLY MET'MAP TEAM :

Programming & Development : Alexandra Zaïnal
Concept & original design : Baudouin d'Aumeries
Assistance for programming : Marc-Olivier Méhu
Technical & hardware support : Manuel Goepfert

Contact : metmap@orbifly.com




SOURCES & CREDITS :

   NOAA